ADDS METAR Data INFO
IDs: Format: Raw Decoded Include TAF

Data at: 1133 UTC 17 Jul 2018

KRTS 171115Z AUTO 34008KT 10SM CLR 15/06 A3023 RMK AO2
KRTS 171055Z AUTO 34009KT 10SM CLR 17/07 A3022 RMK AO2
KRTS 171035Z AUTO 33008KT 10SM CLR 17/07 A3022 RMK AO2
KRTS 171015Z AUTO 35006KT 10SM CLR 17/07 A3022 RMK AO2
KRTS 170955Z AUTO 36007KT 10SM CLR 17/07 A3022 RMK AO2
KRTS 170935Z AUTO 33007KT 10SM CLR 19/06 A3022 RMK AO2
KRTS 170915Z AUTO 34005KT 10SM CLR 19/06 A3022 RMK AO2
KRTS 170855Z AUTO 34006KT 10SM CLR 19/06 A3021 RMK AO2
KRTS 170835Z AUTO 36006KT 10SM CLR 18/06 A3021 RMK AO2
KRTS 170815Z AUTO 32006KT 10SM CLR 19/06 A3021 RMK AO2
KRTS 170755Z AUTO 34004KT 10SM CLR 20/06 A3021 RMK AO2
KRTS 170735Z AUTO 32006KT 10SM CLR 20/05 A3021 RMK AO2
KRTS 170715Z AUTO 32004KT 10SM CLR 21/05 A3022 RMK AO2
KRTS 170655Z AUTO 32006KT 10SM CLR 21/05 A3021 RMK AO2
KRTS 170635Z AUTO 30004KT 10SM CLR 22/05 A3021 RMK AO2
KRTS 170615Z AUTO 31006KT 10SM CLR 23/05 A3021 RMK AO2
KRTS 170555Z AUTO 34006KT 10SM CLR 22/05 A3021 RMK AO2
KRTS 170535Z AUTO 29006KT 10SM CLR 23/05 A3021 RMK AO2
KRTS 170515Z AUTO 00000KT 10SM CLR 24/05 A3020 RMK AO2
KRTS 170455Z AUTO 23005KT 10SM CLR 24/04 A3020 RMK AO2
KRTS 170435Z AUTO 25004KT 10SM CLR 25/04 A3019 RMK AO2
KRTS 170415Z AUTO 29004KT 10SM CLR 24/04 A3018 RMK AO2
KRTS 170355Z AUTO 26008KT 10SM CLR 25/03 A3018 RMK AO2
KRTS 170335Z AUTO 27007KT 10SM CLR 26/03 A3017 RMK AO2
KRTS 170315Z AUTO 28008KT 10SM CLR 27/02 A3017 RMK AO2
KRTS 170255Z AUTO 28008KT 10SM CLR 29/03 A3017 RMK AO2
KRTS 170235Z AUTO 28010KT 10SM CLR 30/02 A3016 RMK AO2
KRTS 170215Z AUTO 29010G17KT 10SM CLR 30/01 A3015 RMK AO2
KRTS 170155Z AUTO 30013KT 10SM CLR 31/01 A3015 RMK AO2
KRTS 170135Z AUTO 30015KT 10SM CLR 31/02 A3015 RMK AO2
KRTS 170115Z AUTO 29010G19KT 260V320 10SM CLR 32/02 A3015 RMK AO2
KRTS 170055Z AUTO 31010KT 10SM CLR 32/01 A3015 RMK AO2
KRTS 170035Z AUTO 31014KT 10SM CLR 32/00 A3015 RMK AO2
KRTS 170015Z AUTO 30011G20KT 10SM CLR 32/M00 A3016 RMK AO2
KRTS 162355Z AUTO 27011G17KT 10SM CLR 32/00 A3015 RMK AO2
KRTS 162335Z AUTO 32006G17KT 10SM CLR 32/02 A3016 RMK AO2
KRTS 162315Z AUTO 32008G15KT 10SM CLR 32/03 A3016 RMK AO2
KRTS 162255Z AUTO 31012G21KT 270V330 10SM CLR 33/03 A3016 RMK AO2
KRTS 162235Z AUTO VRB04G10KT 10SM FEW110 32/04 A3016 RMK AO2
KRTS 162215Z AUTO 30009G16KT 10SM FEW110 32/04 A3017 RMK AO2
KRTS 162155Z AUTO 30008G14KT 260V340 10SM FEW100 32/04 A3017 RMK AO2
KRTS 162135Z AUTO 00000KT 10SM FEW100 31/04 A3018 RMK AO2
KRTS 162115Z AUTO 24011KT 10SM CLR 32/04 A3018 RMK AO2
KRTS 162055Z AUTO 30011G16KT 10SM CLR 31/04 A3019 RMK AO2
KRTS 162035Z AUTO 32009KT 10SM CLR 31/03 A3019 RMK AO2
KRTS 162015Z AUTO 28005G12KT 10SM CLR 30/03 A3020 RMK AO2
KRTS 161955Z AUTO 30007G15KT 10SM CLR 30/04 A3020 RMK AO2
KRTS 161935Z AUTO 00000G13KT 10SM CLR 30/04 A3021 RMK AO2
KRTS 161915Z AUTO 24007KT 10SM CLR 29/05 A3021 RMK AO2
KRTS 161855Z AUTO VRB04G15KT 10SM CLR 29/02 A3021 RMK AO2
KRTS 161835Z AUTO 23005KT 10SM CLR 29/07 A3021 RMK AO2
KRTS 161815Z AUTO 33005KT 10SM CLR 28/06 A3022 RMK AO2
KRTS 161755Z AUTO VRB03KT 10SM CLR 28/08 A3022 RMK AO2
KRTS 161735Z AUTO 00000KT 10SM CLR 27/08 A3022 RMK AO2
KRTS 161715Z AUTO 06003KT 10SM CLR 26/08 A3022 RMK AO2
KRTS 161655Z AUTO 19004KT 10SM CLR 25/09 A3022 RMK AO2
KRTS 161635Z AUTO VRB04KT 10SM CLR 25/09 A3023 RMK AO2
KRTS 161615Z AUTO 25003KT 10SM CLR 23/09 A3023 RMK AO2
KRTS 161555Z AUTO 00000KT 10SM CLR 23/09 A3023 RMK AO2
KRTS 161535Z AUTO 00000KT 10SM CLR 22/09 A3023 RMK AO2
KRTS 161515Z AUTO 00000KT 10SM CLR 21/09 A3023 RMK AO2
KRTS 161455Z AUTO 00000KT 10SM CLR 20/09 A3023 RMK AO2
KRTS 161435Z AUTO 34004KT 10SM CLR 18/09 A3023 RMK AO2
KRTS 161415Z AUTO 33004KT 10SM CLR 18/09 A3022 RMK AO2
KRTS 161355Z AUTO 35007KT 10SM CLR 15/09 A3022 RMK AO2
KRTS 161335Z AUTO 35006KT 10SM CLR 14/10 A3022 RMK AO2
KRTS 161315Z AUTO 34004KT 10SM FEW100 14/09 A3021 RMK AO2
KRTS 161255Z AUTO 36003KT 10SM SCT100 13/09 A3021 RMK AO2
KRTS 161235Z AUTO 36005KT 10SM BKN100 14/09 A3021 RMK AO2
KRTS 161215Z AUTO 00000KT 10SM SCT100 14/09 A3021 RMK AO2
KRTS 161155Z AUTO 34006KT 10SM FEW110 16/09 A3020 RMK AO2
KRTS 161135Z AUTO 35005KT 10SM BKN100 15/09 A3021 RMK AO2
KRTS 161115Z AUTO 00000KT 10SM OVC100 15/09 A3020 RMK AO2
KRTS 161055Z AUTO 35004KT 10SM BKN100 16/09 A3020 RMK AO2
KRTS 161035Z AUTO 36006KT 10SM FEW100 15/10 A3020 RMK AO2
KRTS 161015Z AUTO 35004KT 10SM FEW100 16/10 A3020 RMK AO2
KRTS 160955Z AUTO 36006KT 10SM SCT100 17/10 A3020 RMK AO2
KRTS 160935Z AUTO 34006KT 10SM SCT100 17/10 A3020 RMK AO2
KRTS 160915Z AUTO 33004KT 10SM CLR 16/09 A3020 RMK AO2
KRTS 160855Z AUTO 34005KT 10SM FEW085 17/10 A3021 RMK AO2
KRTS 160835Z AUTO 33006KT 10SM BKN085 18/10 A3021 RMK AO2
KRTS 160815Z AUTO 31008KT 10SM SCT090 18/09 A3021 RMK AO2
KRTS 160755Z AUTO 31008KT 10SM FEW085 20/09 A3021 RMK AO2
KRTS 160735Z AUTO 31007KT 10SM FEW085 FEW110 19/09 A3021 RMK AO2
KRTS 160715Z AUTO 33005KT 10SM FEW110 19/10 A3020 RMK AO2
KRTS 160655Z AUTO 32006KT 10SM CLR 20/10 A3021 RMK AO2
KRTS 160635Z AUTO 28005KT 10SM CLR 21/10 A3021 RMK AO2
KRTS 160615Z AUTO 34004KT 10SM CLR 21/10 A3021 RMK AO2
KRTS 160555Z AUTO 28007KT 10SM CLR 21/10 A3021 RMK AO2
KRTS 160535Z AUTO 31007KT 10SM CLR 22/10 A3020 RMK AO2
KRTS 160515Z AUTO 35010KT 10SM CLR 23/10 A3019 RMK AO2
KRTS 160455Z AUTO 35014KT 10SM CLR 23/10 A3019 RMK AO2
KRTS 160435Z AUTO 35015KT 10SM CLR 24/10 A3018 RMK AO2
KRTS 160415Z AUTO 34009KT 10SM CLR 23/08 A3017 RMK AO2
KRTS 160355Z AUTO 27008G13KT 10SM CLR 25/07 A3016 RMK AO2
KRTS 160335Z AUTO 27010KT 10SM CLR 26/07 A3016 RMK AO2
KRTS 160315Z AUTO 28011KT 10SM FEW120 28/07 A3015 RMK AO2
KRTS 160255Z AUTO 29011G18KT 10SM FEW120 28/06 A3015 RMK AO2
KRTS 160235Z AUTO 29013G20KT 10SM CLR 29/06 A3013 RMK AO2
KRTS 160215Z AUTO 28018G24KT 9SM CLR 29/06 A3012 RMK AO2
KRTS 160155Z AUTO 29015G27KT 10SM CLR 30/07 A3011 RMK AO2
KRTS 160135Z AUTO 29015G23KT 10SM CLR 30/08 A3010 RMK AO2
KRTS 160115Z AUTO 28016G28KT 10SM CLR 31/08 A3010 RMK AO2
KRTS 160055Z AUTO 26019G24KT 10SM CLR 32/07 A3010 RMK AO2
KRTS 160035Z AUTO 29019KT 10SM CLR 32/07 A3010 RMK AO2
KRTS 160015Z AUTO 29017G24KT 10SM FEW110 32/06 A3010 RMK AO2
KRTS 152355Z AUTO 28018KT 10SM FEW110 33/07 A3010 RMK AO2
KRTS 152335Z AUTO 30013G19KT 10SM SCT100 32/07 A3010 RMK AO2